Buoy 13570

sailwx.info

Track history (hours):
 
Tides and Currents Weather Stations Pressure Air Temp Water Temp Dewpoint Dewpoint Depression Visibility Wind Speed Wind Dir Waves Ship Positions

Drifting buoy 13570

Last reported at 2015-Jul-26 23:00 UTC. Time now 2015-Jul-28 03:28 UTC.
Position N 35°21' W 019°21'.

Barometer 1024.7 mb
Water temperature 25.3 ° C

Date/timePositionNaut miles runAvg speedWind from/ knotsBaromVisibWave heightAir tempDewpointWater temp
2015-Jul-26 23:00N 35°21' W 019°21'1 0.6 1024.7 25.3
2015-Jul-26 22:00N 35°21' W 019°22'2 1.6 1024.7 25.4
2015-Jul-26 21:00N 35°22' W 019°23'0 0.3 1024.4 25.5
2015-Jul-26 20:00N 35°22' W 019°24'1 0.7 1024.2 25.5
2015-Jul-26 19:00N 35°22' W 019°24'2 1.0 1024.2 25.5
2015-Jul-26 17:00N 35°22' W 019°27'0 0.0 1023.9 25.6
2015-Jul-26 16:00N 35°22' W 019°27'1 0.3 1023.9 25.6
2015-Jul-26 13:00N 35°22' W 019°28'1 0.7 1024.2 25.5
2015-Jul-26 12:00N 35°22' W 019°29'1 1.5 1024.4 25.5
2015-Jul-26 11:00N 35°23' W 019°30'1 0.4 1024.3 25.4
2015-Jul-26 08:00N 35°23' W 019°31'0 0.0 1023.6 25.3
2015-Jul-26 07:00N 35°23' W 019°31'1 1.0 1023.4 25.3
2015-Jul-26 06:00N 35°24' W 019°32'2 1.8 1023.1 25.3
2015-Jul-26 05:00N 35°24' W 019°34'0 0.0 1023.3 25.3
2015-Jul-26 04:00N 35°24' W 019°34'2 2.3 1023.4 25.3
2015-Jul-26 03:00N 35°24' W 019°37'1 0.2 1023.6 25.3
2015-Jul-25 22:00N 35°25' W 019°38'3 0.8 1024.6 25.6
2015-Jul-25 18:00N 35°26' W 019°42'2 0.4 1023.5 25.8
2015-Jul-25 13:00N 35°27' W 019°43'2 0.6 1024.2 25.4
2015-Jul-25 09:00N 35°28' W 019°46'1 0.6 1023.9 25.1
2015-Jul-25 07:00N 35°28' W 019°47'0 0.3 1023.1 25.1
2015-Jul-25 06:00N 35°29' W 019°47'1 0.7 1022.7 25.1
2015-Jul-25 04:00N 35°29' W 019°49'7 0.7 1022.6 25.2
2015-Jul-24 18:00N 35°32' W 019°56'0 0.1 1023.1 25.7
2015-Jul-24 17:00N 35°32' W 019°56'13 0.6 1023.2 25.7
2015-Jul-23 20:00N 35°41' W 020°08'1 0.5 1023.5 25.2
2015-Jul-23 19:00N 35°41' W 020°09'3 1.0 1023.3 25.3
2015-Jul-23 16:00N 35°43' W 020°12'1 0.3 1023.7 25.1
2015-Jul-23 12:00N 35°44' W 020°13'3 0.5 1024.7 24.8
2015-Jul-23 06:00N 35°46' W 020°15'2 0.4 1023.9 24.7
2015-Jul-23 02:00N 35°48' W 020°17'2 0.8 1024.4 24.7
2015-Jul-22 23:00N 35°50' W 020°18'1 1.3 1024.9 25.1
2015-Jul-22 22:00N 35°50' W 020°19'2 0.4 1024.6 25.2
2015-Jul-22 17:00N 35°51' W 020°22'3 0.4 1023.4 25.8
2015-Jul-22 10:00N 35°54' W 020°22'4 0.5 1023.2 25.1
2015-Jul-22 03:00N 35°56' W 020°26'2 0.3 1021.9 25.3
2015-Jul-21 20:00N 35°57' W 020°28'0 0.0 1021.2 26.7
2015-Jul-21 19:00N 35°57' W 020°28'0 0.1 1020.9 27.3
2015-Jul-21 17:00N 35°57' W 020°28'2 0.3 1020.7 28.3
2015-Jul-21 12:00N 35°59' W 020°29'1 0.7 1021.6 25.7
2015-Jul-21 11:00N 35°59' W 020°30'2 0.3 1021.6 25.1
2015-Jul-21 03:00N 35°60' W 020°32'0 0.1 1020.0 24.7
2015-Jul-20 22:00N 35°60' W 020°33'1 0.6 1021.0 24.9
2015-Jul-20 20:00N 36°00' W 020°34'0 0.1 1020.2 25.0
2015-Jul-20 19:00N 36°00' W 020°34'1 0.6 1019.9 25.1
2015-Jul-20 18:00N 36°01' W 020°34'0 0.2 1020.0 25.1
2015-Jul-20 17:00N 36°01' W 020°34'0 0.0 1020.0 25.3
2015-Jul-20 16:00N 36°01' W 020°34'2 0.6 1020.1 25.2
2015-Jul-20 12:00N 36°02' W 020°37'1 0.6 1021.0 24.7
2015-Jul-20 11:00N 36°01' W 020°36'0 0.0 1021.2 24.5
2015-Jul-20 10:00N 36°01' W 020°36'1 1.3 1021.1 24.3
2015-Jul-20 09:00N 36°01' W 020°38'1 0.7 1021.1 24.2
2015-Jul-20 08:00N 36°01' W 020°37'1 0.1 1020.8 24.2
2015-Jul-19 23:00N 36°02' W 020°37'1 0.2 1022.6 24.2
2015-Jul-19 20:00N 36°03' W 020°38'3 0.5 1022.1 24.3
2015-Jul-19 14:00N 36°02' W 020°41'1 0.3 1023.0 24.3
2015-Jul-19 10:00N 36°01' W 020°40'0 0.3 1023.0 24.2
2015-Jul-19 09:00N 36°02' W 020°40'1 0.4 1023.1 24.2
2015-Jul-19 06:00N 36°02' W 020°39'4 0.2 1022.1 24.3
2015-Jul-18 11:00N 36°03' W 020°44'2 0.2 1023.1 24.3
2015-Jul-17 23:00N 36°01' W 020°47'1 0.2 1022.8 24.4
2015-Jul-17 20:00N 36°01' W 020°46'1 0.3 1021.6 24.5
2015-Jul-17 17:00N 36°02' W 020°47'1 0.2 1021.0 24.6
2015-Jul-17 11:00N 36°01' W 020°49'1 0.2 1021.3 24.3
2015-Jul-17 07:00N 36°01' W 020°49'2 0.5 1020.2 24.4
2015-Jul-17 04:00N 36°00' W 020°51'0 0.0 1019.9 24.5
2015-Jul-17 03:00N 36°00' W 020°51'   1020.0 24.6
Track history (hours):
 
Tides and Currents Weather Stations Pressure Air Temp Water Temp Dewpoint Dewpoint Depression Visibility Wind Speed Wind Dir Waves Ship Positions

Drifting buoy 13570

Last reported at 2015-Jul-26 23:00 UTC. Time now 2015-Jul-28 03:28 UTC.
Position N 35°21' W 019°21'.

Barometer 1024.7 mb
Water temperature 25.3 ° C

Date/timePositionNaut miles runAvg speedWind from/ knotsBaromVisibWave heightAir tempDewpointWater temp
2015-Jul-26 23:00N 35°21' W 019°21'1 0.6 1024.7 25.3
2015-Jul-26 22:00N 35°21' W 019°22'2 1.6 1024.7 25.4
2015-Jul-26 21:00N 35°22' W 019°23'0 0.3 1024.4 25.5
2015-Jul-26 20:00N 35°22' W 019°24'1 0.7 1024.2 25.5
2015-Jul-26 19:00N 35°22' W 019°24'2 1.0 1024.2 25.5
2015-Jul-26 17:00N 35°22' W 019°27'0 0.0 1023.9 25.6
2015-Jul-26 16:00N 35°22' W 019°27'1 0.3 1023.9 25.6
2015-Jul-26 13:00N 35°22' W 019°28'1 0.7 1024.2 25.5
2015-Jul-26 12:00N 35°22' W 019°29'1 1.5 1024.4 25.5
2015-Jul-26 11:00N 35°23' W 019°30'1 0.4 1024.3 25.4
2015-Jul-26 08:00N 35°23' W 019°31'0 0.0 1023.6 25.3
2015-Jul-26 07:00N 35°23' W 019°31'1 1.0 1023.4 25.3
2015-Jul-26 06:00N 35°24' W 019°32'2 1.8 1023.1 25.3
2015-Jul-26 05:00N 35°24' W 019°34'0 0.0 1023.3 25.3
2015-Jul-26 04:00N 35°24' W 019°34'2 2.3 1023.4 25.3
2015-Jul-26 03:00N 35°24' W 019°37'1 0.2 1023.6 25.3
2015-Jul-25 22:00N 35°25' W 019°38'3 0.8 1024.6 25.6
2015-Jul-25 18:00N 35°26' W 019°42'2 0.4 1023.5 25.8
2015-Jul-25 13:00N 35°27' W 019°43'2 0.6 1024.2 25.4
2015-Jul-25 09:00N 35°28' W 019°46'1 0.6 1023.9 25.1
2015-Jul-25 07:00N 35°28' W 019°47'0 0.3 1023.1 25.1
2015-Jul-25 06:00N 35°29' W 019°47'1 0.7 1022.7 25.1
2015-Jul-25 04:00N 35°29' W 019°49'7 0.7 1022.6 25.2
2015-Jul-24 18:00N 35°32' W 019°56'0 0.1 1023.1 25.7
2015-Jul-24 17:00N 35°32' W 019°56'13 0.6 1023.2 25.7
2015-Jul-23 20:00N 35°41' W 020°08'1 0.5 1023.5 25.2
2015-Jul-23 19:00N 35°41' W 020°09'3 1.0 1023.3 25.3
2015-Jul-23 16:00N 35°43' W 020°12'1 0.3 1023.7 25.1
2015-Jul-23 12:00N 35°44' W 020°13'3 0.5 1024.7 24.8
2015-Jul-23 06:00N 35°46' W 020°15'2 0.4 1023.9 24.7
2015-Jul-23 02:00N 35°48' W 020°17'2 0.8 1024.4 24.7
2015-Jul-22 23:00N 35°50' W 020°18'1 1.3 1024.9 25.1
2015-Jul-22 22:00N 35°50' W 020°19'2 0.4 1024.6 25.2
2015-Jul-22 17:00N 35°51' W 020°22'3 0.4 1023.4 25.8
2015-Jul-22 10:00N 35°54' W 020°22'4 0.5 1023.2 25.1
2015-Jul-22 03:00N 35°56' W 020°26'2 0.3 1021.9 25.3
2015-Jul-21 20:00N 35°57' W 020°28'0 0.0 1021.2 26.7
2015-Jul-21 19:00N 35°57' W 020°28'0 0.1 1020.9 27.3
2015-Jul-21 17:00N 35°57' W 020°28'2 0.3 1020.7 28.3
2015-Jul-21 12:00N 35°59' W 020°29'1 0.7 1021.6 25.7
2015-Jul-21 11:00N 35°59' W 020°30'2 0.3 1021.6 25.1
2015-Jul-21 03:00N 35°60' W 020°32'0 0.1 1020.0 24.7
2015-Jul-20 22:00N 35°60' W 020°33'1 0.6 1021.0 24.9
2015-Jul-20 20:00N 36°00' W 020°34'0 0.1 1020.2 25.0
2015-Jul-20 19:00N 36°00' W 020°34'1 0.6 1019.9 25.1
2015-Jul-20 18:00N 36°01' W 020°34'0 0.2 1020.0 25.1
2015-Jul-20 17:00N 36°01' W 020°34'0 0.0 1020.0 25.3
2015-Jul-20 16:00N 36°01' W 020°34'2 0.6 1020.1 25.2
2015-Jul-20 12:00N 36°02' W 020°37'1 0.6 1021.0 24.7
2015-Jul-20 11:00N 36°01' W 020°36'0 0.0 1021.2 24.5
2015-Jul-20 10:00N 36°01' W 020°36'1 1.3 1021.1 24.3
2015-Jul-20 09:00N 36°01' W 020°38'1 0.7 1021.1 24.2
2015-Jul-20 08:00N 36°01' W 020°37'1 0.1 1020.8 24.2
2015-Jul-19 23:00N 36°02' W 020°37'1 0.2 1022.6 24.2
2015-Jul-19 20:00N 36°03' W 020°38'3 0.5 1022.1 24.3
2015-Jul-19 14:00N 36°02' W 020°41'1 0.3 1023.0 24.3
2015-Jul-19 10:00N 36°01' W 020°40'0 0.3 1023.0 24.2
2015-Jul-19 09:00N 36°02' W 020°40'1 0.4 1023.1 24.2
2015-Jul-19 06:00N 36°02' W 020°39'4 0.2 1022.1 24.3
2015-Jul-18 11:00N 36°03' W 020°44'2 0.2 1023.1 24.3
2015-Jul-17 23:00N 36°01' W 020°47'1 0.2 1022.8 24.4
2015-Jul-17 20:00N 36°01' W 020°46'1 0.3 1021.6 24.5
2015-Jul-17 17:00N 36°02' W 020°47'1 0.2 1021.0 24.6
2015-Jul-17 11:00N 36°01' W 020°49'1 0.2 1021.3 24.3
2015-Jul-17 07:00N 36°01' W 020°49'2 0.5 1020.2 24.4
2015-Jul-17 04:00N 36°00' W 020°51'0 0.0 1019.9 24.5
2015-Jul-17 03:00N 36°00' W 020°51'   1020.0 24.6

Dump ship's entire track history